sensor_id;sensor_type;location;lat;lon;timestamp;P1;durP1;ratioP1;P2;durP2;ratioP2
23181;SDS011;11759;51.282;6.642;2023-07-29T00:01:28;516.90;;;147.98;;
23181;SDS011;11759;51.282;6.642;2023-07-29T00:03:55;496.45;;;135.75;;
23181;SDS011;11759;51.282;6.642;2023-07-29T00:06:22;513.40;;;148.02;;
23181;SDS011;11759;51.282;6.642;2023-07-29T00:08:49;492.08;;;133.43;;
23181;SDS011;11759;51.282;6.642;2023-07-29T00:11:16;499.92;;;140.93;;
23181;SDS011;11759;51.282;6.642;2023-07-29T00:13:42;505.02;;;144.35;;
23181;SDS011;11759;51.282;6.642;2023-07-29T00:16:09;501.48;;;141.43;;
23181;SDS011;11759;51.282;6.642;2023-07-29T00:18:36;518.92;;;159.45;;
23181;SDS011;11759;51.282;6.642;2023-07-29T00:21:03;484.50;;;133.20;;
23181;SDS011;11759;51.282;6.642;2023-07-29T00:23:30;523.13;;;155.80;;
23181;SDS011;11759;51.282;6.642;2023-07-29T00:25:56;560.13;;;185.93;;
23181;SDS011;11759;51.282;6.642;2023-07-29T00:28:23;489.25;;;135.50;;
23181;SDS011;11759;51.282;6.642;2023-07-29T00:30:50;523.67;;;155.35;;
23181;SDS011;11759;51.282;6.642;2023-07-29T00:33:16;497.13;;;138.25;;
23181;SDS011;11759;51.282;6.642;2023-07-29T00:35:43;507.70;;;143.65;;
23181;SDS011;11759;51.282;6.642;2023-07-29T00:38:10;488.40;;;139.05;;
23181;SDS011;11759;51.282;6.642;2023-07-29T00:40:37;499.48;;;142.50;;
23181;SDS011;11759;51.282;6.642;2023-07-29T00:43:05;487.20;;;129.98;;
23181;SDS011;11759;51.282;6.642;2023-07-29T00:45:34;487.40;;;132.90;;
23181;SDS011;11759;51.282;6.642;2023-07-29T00:48:01;509.83;;;140.25;;
23181;SDS011;11759;51.282;6.642;2023-07-29T00:50:29;488.25;;;133.18;;
23181;SDS011;11759;51.282;6.642;2023-07-29T00:52:59;504.42;;;141.98;;
23181;SDS011;11759;51.282;6.642;2023-07-29T00:55:25;492.60;;;135.60;;
23181;SDS011;11759;51.282;6.642;2023-07-29T00:57:53;522.92;;;155.60;;
23181;SDS011;11759;51.282;6.642;2023-07-29T01:00:21;499.38;;;137.23;;
23181;SDS011;11759;51.282;6.642;2023-07-29T01:02:48;502.95;;;138.10;;
23181;SDS011;11759;51.282;6.642;2023-07-29T01:05:15;522.90;;;161.40;;
23181;SDS011;11759;51.282;6.642;2023-07-29T01:10:19;608.63;;;221.80;;
23181;SDS011;11759;51.282;6.642;2023-07-29T01:16:00;490.70;;;134.13;;
23181;SDS011;11759;51.282;6.642;2023-07-29T01:18:31;487.45;;;132.35;;
23181;SDS011;11759;51.282;6.642;2023-07-29T01:20:59;522.00;;;147.45;;
23181;SDS011;11759;51.282;6.642;2023-07-29T01:23:31;523.65;;;150.70;;
23181;SDS011;11759;51.282;6.642;2023-07-29T01:25:58;492.83;;;136.23;;
23181;SDS011;11759;51.282;6.642;2023-07-29T01:28:25;520.88;;;151.50;;
23181;SDS011;11759;51.282;6.642;2023-07-29T01:30:56;484.60;;;133.65;;
23181;SDS011;11759;51.282;6.642;2023-07-29T01:33:27;490.95;;;136.75;;
23181;SDS011;11759;51.282;6.642;2023-07-29T01:36:02;500.13;;;139.70;;
23181;SDS011;11759;51.282;6.642;2023-07-29T01:38:35;510.17;;;152.23;;
23181;SDS011;11759;51.282;6.642;2023-07-29T01:41:03;492.45;;;136.55;;
23181;SDS011;11759;51.282;6.642;2023-07-29T01:43:31;494.48;;;138.82;;
23181;SDS011;11759;51.282;6.642;2023-07-29T01:46:00;496.85;;;142.85;;
23181;SDS011;11759;51.282;6.642;2023-07-29T01:48:27;488.60;;;138.38;;
23181;SDS011;11759;51.282;6.642;2023-07-29T01:51:07;509.60;;;146.55;;
23181;SDS011;11759;51.282;6.642;2023-07-29T01:53:37;589.97;;;209.95;;
23181;SDS011;11759;51.282;6.642;2023-07-29T01:56:03;488.67;;;132.23;;
23181;SDS011;11759;51.282;6.642;2023-07-29T01:58:31;564.80;;;184.68;;
23181;SDS011;11759;51.282;6.642;2023-07-29T02:00:58;555.80;;;188.13;;
23181;SDS011;11759;51.282;6.642;2023-07-29T02:03:24;492.30;;;140.07;;
23181;SDS011;11759;51.282;6.642;2023-07-29T02:05:51;504.65;;;144.35;;
23181;SDS011;11759;51.282;6.642;2023-07-29T02:08:18;497.52;;;143.80;;
23181;SDS011;11759;51.282;6.642;2023-07-29T02:10:44;485.13;;;139.82;;
23181;SDS011;11759;51.282;6.642;2023-07-29T02:13:11;506.15;;;147.57;;
23181;SDS011;11759;51.282;6.642;2023-07-29T02:15:38;486.10;;;141.88;;
23181;SDS011;11759;51.282;6.642;2023-07-29T02:18:05;574.95;;;200.50;;
23181;SDS011;11759;51.282;6.642;2023-07-29T02:20:33;482.40;;;134.98;;
23181;SDS011;11759;51.282;6.642;2023-07-29T02:23:00;489.08;;;132.23;;
23181;SDS011;11759;51.282;6.642;2023-07-29T02:25:27;524.80;;;158.52;;
23181;SDS011;11759;51.282;6.642;2023-07-29T02:27:53;480.10;;;133.88;;
23181;SDS011;11759;51.282;6.642;2023-07-29T02:30:20;520.53;;;151.07;;
23181;SDS011;11759;51.282;6.642;2023-07-29T02:32:47;492.48;;;140.95;;
23181;SDS011;11759;51.282;6.642;2023-07-29T02:35:14;533.70;;;176.45;;
23181;SDS011;11759;51.282;6.642;2023-07-29T02:37:41;499.02;;;144.18;;
23181;SDS011;11759;51.282;6.642;2023-07-29T02:40:08;530.97;;;170.23;;
23181;SDS011;11759;51.282;6.642;2023-07-29T02:42:35;538.80;;;164.32;;
23181;SDS011;11759;51.282;6.642;2023-07-29T02:45:02;483.95;;;129.07;;
23181;SDS011;11759;51.282;6.642;2023-07-29T02:47:29;513.00;;;141.77;;
23181;SDS011;11759;51.282;6.642;2023-07-29T02:49:56;488.55;;;126.88;;
23181;SDS011;11759;51.282;6.642;2023-07-29T02:52:22;513.92;;;144.88;;
23181;SDS011;11759;51.282;6.642;2023-07-29T02:54:49;482.33;;;129.75;;
23181;SDS011;11759;51.282;6.642;2023-07-29T02:57:16;489.05;;;140.07;;
23181;SDS011;11759;51.282;6.642;2023-07-29T02:59:43;545.97;;;167.32;;
23181;SDS011;11759;51.282;6.642;2023-07-29T03:02:10;487.27;;;129.25;;
23181;SDS011;11759;51.282;6.642;2023-07-29T03:04:37;516.58;;;149.68;;
23181;SDS011;11759;51.282;6.642;2023-07-29T03:07:04;485.88;;;127.75;;
23181;SDS011;11759;51.282;6.642;2023-07-29T03:09:31;496.67;;;131.60;;
23181;SDS011;11759;51.282;6.642;2023-07-29T03:11:59;489.90;;;130.20;;
23181;SDS011;11759;51.282;6.642;2023-07-29T03:14:26;485.77;;;131.93;;
23181;SDS011;11759;51.282;6.642;2023-07-29T03:16:54;503.88;;;136.98;;
23181;SDS011;11759;51.282;6.642;2023-07-29T03:19:21;484.88;;;128.55;;
23181;SDS011;11759;51.282;6.642;2023-07-29T03:21:49;515.45;;;140.13;;
23181;SDS011;11759;51.282;6.642;2023-07-29T03:24:15;483.40;;;129.23;;
23181;SDS011;11759;51.282;6.642;2023-07-29T03:26:42;638.38;;;243.18;;
23181;SDS011;11759;51.282;6.642;2023-07-29T03:29:12;554.05;;;172.85;;
23181;SDS011;11759;51.282;6.642;2023-07-29T03:31:38;561.17;;;183.10;;
23181;SDS011;11759;51.282;6.642;2023-07-29T03:34:05;489.73;;;131.85;;
23181;SDS011;11759;51.282;6.642;2023-07-29T03:36:32;489.13;;;132.07;;
23181;SDS011;11759;51.282;6.642;2023-07-29T03:38:59;509.67;;;139.23;;
23181;SDS011;11759;51.282;6.642;2023-07-29T03:41:26;486.75;;;127.72;;
23181;SDS011;11759;51.282;6.642;2023-07-29T03:43:53;497.58;;;136.57;;
23181;SDS011;11759;51.282;6.642;2023-07-29T03:46:20;520.85;;;146.05;;
23181;SDS011;11759;51.282;6.642;2023-07-29T03:48:49;486.08;;;130.60;;
23181;SDS011;11759;51.282;6.642;2023-07-29T03:51:15;523.35;;;152.07;;
23181;SDS011;11759;51.282;6.642;2023-07-29T03:53:42;487.42;;;132.30;;
23181;SDS011;11759;51.282;6.642;2023-07-29T03:56:09;488.90;;;131.27;;
23181;SDS011;11759;51.282;6.642;2023-07-29T03:58:35;497.38;;;133.10;;
23181;SDS011;11759;51.282;6.642;2023-07-29T04:01:02;487.75;;;128.35;;
23181;SDS011;11759;51.282;6.642;2023-07-29T04:03:31;547.13;;;162.15;;
23181;SDS011;11759;51.282;6.642;2023-07-29T04:05:59;483.45;;;124.28;;
23181;SDS011;11759;51.282;6.642;2023-07-29T04:08:26;521.25;;;144.52;;
23181;SDS011;11759;51.282;6.642;2023-07-29T04:10:53;485.02;;;127.53;;
23181;SDS011;11759;51.282;6.642;2023-07-29T04:13:20;508.60;;;137.18;;
23181;SDS011;11759;51.282;6.642;2023-07-29T04:15:46;486.95;;;126.50;;
23181;SDS011;11759;51.282;6.642;2023-07-29T04:18:13;490.60;;;130.05;;
23181;SDS011;11759;51.282;6.642;2023-07-29T04:20:41;482.73;;;124.78;;
23181;SDS011;11759;51.282;6.642;2023-07-29T04:23:08;486.80;;;127.03;;
23181;SDS011;11759;51.282;6.642;2023-07-29T04:25:34;518.92;;;141.57;;
23181;SDS011;11759;51.282;6.642;2023-07-29T04:28:01;481.13;;;125.15;;
23181;SDS011;11759;51.282;6.642;2023-07-29T04:30:29;506.65;;;131.98;;
23181;SDS011;11759;51.282;6.642;2023-07-29T04:32:56;483.98;;;122.32;;
23181;SDS011;11759;51.282;6.642;2023-07-29T04:35:23;514.55;;;138.70;;
23181;SDS011;11759;51.282;6.642;2023-07-29T04:37:49;477.05;;;122.63;;
23181;SDS011;11759;51.282;6.642;2023-07-29T04:40:16;535.45;;;161.63;;
23181;SDS011;11759;51.282;6.642;2023-07-29T04:42:42;487.77;;;124.90;;
23181;SDS011;11759;51.282;6.642;2023-07-29T04:45:09;529.53;;;162.68;;
23181;SDS011;11759;51.282;6.642;2023-07-29T04:47:36;506.65;;;136.38;;
23181;SDS011;11759;51.282;6.642;2023-07-29T04:50:03;493.80;;;130.55;;
23181;SDS011;11759;51.282;6.642;2023-07-29T04:52:30;551.20;;;165.63;;
23181;SDS011;11759;51.282;6.642;2023-07-29T04:54:56;491.10;;;128.48;;
23181;SDS011;11759;51.282;6.642;2023-07-29T04:57:23;519.92;;;145.20;;
23181;SDS011;11759;51.282;6.642;2023-07-29T04:59:50;484.63;;;126.15;;
23181;SDS011;11759;51.282;6.642;2023-07-29T05:02:16;521.78;;;146.27;;
23181;SDS011;11759;51.282;6.642;2023-07-29T05:04:43;491.10;;;125.85;;
23181;SDS011;11759;51.282;6.642;2023-07-29T05:07:10;503.67;;;136.65;;
23181;SDS011;11759;51.282;6.642;2023-07-29T05:09:37;500.90;;;131.35;;
23181;SDS011;11759;51.282;6.642;2023-07-29T05:12:04;495.77;;;127.65;;
23181;SDS011;11759;51.282;6.642;2023-07-29T05:14:31;584.63;;;194.57;;
23181;SDS011;11759;51.282;6.642;2023-07-29T05:16:57;486.88;;;125.50;;
23181;SDS011;11759;51.282;6.642;2023-07-29T05:19:24;514.55;;;141.32;;
23181;SDS011;11759;51.282;6.642;2023-07-29T05:21:51;484.40;;;126.45;;
23181;SDS011;11759;51.282;6.642;2023-07-29T05:24:18;527.10;;;148.32;;
23181;SDS011;11759;51.282;6.642;2023-07-29T05:26:45;488.45;;;128.68;;
23181;SDS011;11759;51.282;6.642;2023-07-29T05:29:11;512.80;;;135.68;;
23181;SDS011;11759;51.282;6.642;2023-07-29T05:31:38;494.45;;;127.05;;
23181;SDS011;11759;51.282;6.642;2023-07-29T05:34:06;497.85;;;130.52;;
23181;SDS011;11759;51.282;6.642;2023-07-29T05:36:32;497.20;;;131.15;;
23181;SDS011;11759;51.282;6.642;2023-07-29T05:38:59;488.23;;;126.53;;
23181;SDS011;11759;51.282;6.642;2023-07-29T05:41:26;510.85;;;140.65;;
23181;SDS011;11759;51.282;6.642;2023-07-29T05:43:54;488.45;;;127.22;;
23181;SDS011;11759;51.282;6.642;2023-07-29T05:46:21;516.65;;;143.02;;
23181;SDS011;11759;51.282;6.642;2023-07-29T05:48:48;497.65;;;130.85;;
23181;SDS011;11759;51.282;6.642;2023-07-29T05:51:14;512.85;;;140.75;;
23181;SDS011;11759;51.282;6.642;2023-07-29T05:53:41;492.42;;;129.10;;
23181;SDS011;11759;51.282;6.642;2023-07-29T05:56:07;493.23;;;132.00;;
23181;SDS011;11759;51.282;6.642;2023-07-29T05:58:34;489.38;;;130.43;;
23181;SDS011;11759;51.282;6.642;2023-07-29T06:01:00;483.13;;;127.05;;
23181;SDS011;11759;51.282;6.642;2023-07-29T06:03:28;496.25;;;130.85;;
23181;SDS011;11759;51.282;6.642;2023-07-29T06:05:55;494.00;;;127.47;;
23181;SDS011;11759;51.282;6.642;2023-07-29T06:08:21;491.83;;;130.32;;
23181;SDS011;11759;51.282;6.642;2023-07-29T06:10:48;510.30;;;139.07;;
23181;SDS011;11759;51.282;6.642;2023-07-29T06:13:15;490.13;;;133.82;;
23181;SDS011;11759;51.282;6.642;2023-07-29T06:15:41;514.70;;;145.48;;
23181;SDS011;11759;51.282;6.642;2023-07-29T06:18:08;488.42;;;133.10;;
23181;SDS011;11759;51.282;6.642;2023-07-29T06:20:35;509.50;;;137.68;;
23181;SDS011;11759;51.282;6.642;2023-07-29T06:23:01;486.35;;;130.45;;
23181;SDS011;11759;51.282;6.642;2023-07-29T06:25:28;511.75;;;149.65;;
23181;SDS011;11759;51.282;6.642;2023-07-29T06:27:55;483.10;;;126.90;;
23181;SDS011;11759;51.282;6.642;2023-07-29T06:30:21;482.05;;;129.55;;
23181;SDS011;11759;51.282;6.642;2023-07-29T06:32:48;494.73;;;134.35;;
23181;SDS011;11759;51.282;6.642;2023-07-29T06:35:16;526.33;;;158.75;;
23181;SDS011;11759;51.282;6.642;2023-07-29T06:37:42;506.10;;;141.85;;
23181;SDS011;11759;51.282;6.642;2023-07-29T06:40:09;523.33;;;163.48;;
23181;SDS011;11759;51.282;6.642;2023-07-29T06:42:36;509.23;;;143.63;;
23181;SDS011;11759;51.282;6.642;2023-07-29T06:45:04;491.40;;;139.88;;
23181;SDS011;11759;51.282;6.642;2023-07-29T06:47:31;580.13;;;208.30;;
23181;SDS011;11759;51.282;6.642;2023-07-29T06:49:58;485.20;;;132.90;;
23181;SDS011;11759;51.282;6.642;2023-07-29T06:52:25;493.15;;;139.93;;
23181;SDS011;11759;51.282;6.642;2023-07-29T06:54:52;492.08;;;138.95;;
23181;SDS011;11759;51.282;6.642;2023-07-29T06:57:18;489.08;;;138.95;;
23181;SDS011;11759;51.282;6.642;2023-07-29T06:59:45;508.50;;;148.52;;
23181;SDS011;11759;51.282;6.642;2023-07-29T07:02:12;486.30;;;136.57;;
23181;SDS011;11759;51.282;6.642;2023-07-29T07:04:39;567.97;;;193.02;;
23181;SDS011;11759;51.282;6.642;2023-07-29T07:07:05;490.20;;;139.13;;
23181;SDS011;11759;51.282;6.642;2023-07-29T07:09:32;511.42;;;151.35;;
23181;SDS011;11759;51.282;6.642;2023-07-29T07:11:59;489.60;;;136.57;;
23181;SDS011;11759;51.282;6.642;2023-07-29T07:14:25;499.08;;;145.02;;
23181;SDS011;11759;51.282;6.642;2023-07-29T07:16:52;500.10;;;147.30;;
23181;SDS011;11759;51.282;6.642;2023-07-29T07:19:18;513.90;;;154.45;;
23181;SDS011;11759;51.282;6.642;2023-07-29T07:21:45;495.88;;;144.85;;
23181;SDS011;11759;51.282;6.642;2023-07-29T07:24:12;527.58;;;167.65;;
23181;SDS011;11759;51.282;6.642;2023-07-29T07:26:39;492.17;;;143.25;;
23181;SDS011;11759;51.282;6.642;2023-07-29T07:29:06;509.50;;;150.52;;
23181;SDS011;11759;51.282;6.642;2023-07-29T07:31:33;493.33;;;145.80;;
23181;SDS011;11759;51.282;6.642;2023-07-29T07:34:00;492.77;;;143.13;;
23181;SDS011;11759;51.282;6.642;2023-07-29T07:36:28;511.13;;;155.77;;
23181;SDS011;11759;51.282;6.642;2023-07-29T07:38:55;493.40;;;148.10;;
23181;SDS011;11759;51.282;6.642;2023-07-29T07:41:22;550.88;;;186.13;;
23181;SDS011;11759;51.282;6.642;2023-07-29T07:43:48;498.77;;;147.10;;
23181;SDS011;11759;51.282;6.642;2023-07-29T07:46:15;529.33;;;167.20;;
23181;SDS011;11759;51.282;6.642;2023-07-29T07:48:42;493.63;;;145.45;;
23181;SDS011;11759;51.282;6.642;2023-07-29T07:51:12;511.55;;;158.88;;
23181;SDS011;11759;51.282;6.642;2023-07-29T07:53:39;494.52;;;150.68;;
23181;SDS011;11759;51.282;6.642;2023-07-29T07:56:06;537.50;;;186.57;;
23181;SDS011;11759;51.282;6.642;2023-07-29T07:58:33;491.55;;;144.27;;
23181;SDS011;11759;51.282;6.642;2023-07-29T08:01:01;497.17;;;150.93;;
23181;SDS011;11759;51.282;6.642;2023-07-29T08:03:29;494.15;;;148.20;;
23181;SDS011;11759;51.282;6.642;2023-07-29T08:05:56;493.40;;;152.95;;
23181;SDS011;11759;51.282;6.642;2023-07-29T08:08:22;511.15;;;161.20;;
23181;SDS011;11759;51.282;6.642;2023-07-29T08:10:49;495.08;;;152.43;;
23181;SDS011;11759;51.282;6.642;2023-07-29T08:13:16;529.05;;;173.95;;
23181;SDS011;11759;51.282;6.642;2023-07-29T08:15:45;498.50;;;149.55;;
23181;SDS011;11759;51.282;6.642;2023-07-29T08:18:13;526.50;;;163.05;;
23181;SDS011;11759;51.282;6.642;2023-07-29T08:20:40;488.00;;;145.85;;
23181;SDS011;11759;51.282;6.642;2023-07-29T08:23:06;526.13;;;182.50;;
23181;SDS011;11759;51.282;6.642;2023-07-29T08:25:33;490.63;;;153.77;;
23181;SDS011;11759;51.282;6.642;2023-07-29T08:28:00;500.25;;;165.27;;
23181;SDS011;11759;51.282;6.642;2023-07-29T08:30:27;509.02;;;172.80;;
23181;SDS011;11759;51.282;6.642;2023-07-29T08:32:54;505.30;;;181.13;;
23181;SDS011;11759;51.282;6.642;2023-07-29T08:35:20;532.50;;;188.77;;
23181;SDS011;11759;51.282;6.642;2023-07-29T08:37:47;499.65;;;167.52;;
23181;SDS011;11759;51.282;6.642;2023-07-29T08:40:13;575.97;;;231.23;;
23181;SDS011;11759;51.282;6.642;2023-07-29T08:42:40;503.85;;;178.73;;
23181;SDS011;11759;51.282;6.642;2023-07-29T08:45:07;552.90;;;221.63;;
23181;SDS011;11759;51.282;6.642;2023-07-29T08:47:35;514.35;;;196.77;;
23181;SDS011;11759;51.282;6.642;2023-07-29T08:50:02;523.63;;;199.52;;
23181;SDS011;11759;51.282;6.642;2023-07-29T08:52:30;512.90;;;197.05;;
23181;SDS011;11759;51.282;6.642;2023-07-29T08:54:58;515.47;;;200.45;;
23181;SDS011;11759;51.282;6.642;2023-07-29T08:57:25;517.75;;;195.68;;
23181;SDS011;11759;51.282;6.642;2023-07-29T08:59:52;516.30;;;198.68;;
23181;SDS011;11759;51.282;6.642;2023-07-29T09:02:19;504.33;;;180.52;;
23181;SDS011;11759;51.282;6.642;2023-07-29T09:04:46;517.72;;;188.48;;
23181;SDS011;11759;51.282;6.642;2023-07-29T09:07:12;510.20;;;187.10;;
23181;SDS011;11759;51.282;6.642;2023-07-29T09:09:39;566.53;;;224.95;;
23181;SDS011;11759;51.282;6.642;2023-07-29T09:12:07;499.48;;;174.77;;
23181;SDS011;11759;51.282;6.642;2023-07-29T09:14:33;552.22;;;204.60;;
23181;SDS011;11759;51.282;6.642;2023-07-29T09:17:00;495.85;;;160.98;;
23181;SDS011;11759;51.282;6.642;2023-07-29T09:19:27;510.25;;;172.55;;
23181;SDS011;11759;51.282;6.642;2023-07-29T09:21:54;500.20;;;159.43;;
23181;SDS011;11759;51.282;6.642;2023-07-29T09:24:21;500.75;;;161.65;;
23181;SDS011;11759;51.282;6.642;2023-07-29T09:26:48;513.53;;;166.20;;
23181;SDS011;11759;51.282;6.642;2023-07-29T09:29:21;493.88;;;149.85;;
23181;SDS011;11759;51.282;6.642;2023-07-29T09:31:49;511.67;;;160.60;;
23181;SDS011;11759;51.282;6.642;2023-07-29T09:34:16;500.88;;;153.55;;
23181;SDS011;11759;51.282;6.642;2023-07-29T09:36:43;504.42;;;161.18;;
23181;SDS011;11759;51.282;6.642;2023-07-29T09:39:11;519.92;;;174.57;;
23181;SDS011;11759;51.282;6.642;2023-07-29T09:41:39;502.63;;;172.40;;
23181;SDS011;11759;51.282;6.642;2023-07-29T09:44:06;518.13;;;180.70;;
23181;SDS011;11759;51.282;6.642;2023-07-29T09:46:34;500.50;;;174.40;;
23181;SDS011;11759;51.282;6.642;2023-07-29T09:49:03;560.28;;;225.65;;
23181;SDS011;11759;51.282;6.642;2023-07-29T09:51:31;508.40;;;192.30;;
23181;SDS011;11759;51.282;6.642;2023-07-29T09:53:58;544.08;;;228.48;;
23181;SDS011;11759;51.282;6.642;2023-07-29T09:56:28;511.83;;;204.25;;
23181;SDS011;11759;51.282;6.642;2023-07-29T09:58:56;553.72;;;246.38;;
23181;SDS011;11759;51.282;6.642;2023-07-29T10:01:23;517.10;;;220.90;;
23181;SDS011;11759;51.282;6.642;2023-07-29T10:03:50;540.78;;;232.48;;
23181;SDS011;11759;51.282;6.642;2023-07-29T10:06:18;524.03;;;222.23;;
23181;SDS011;11759;51.282;6.642;2023-07-29T10:08:45;525.83;;;220.70;;
23181;SDS011;11759;51.282;6.642;2023-07-29T10:11:12;516.67;;;208.95;;
23181;SDS011;11759;51.282;6.642;2023-07-29T10:13:39;512.40;;;202.43;;
23181;SDS011;11759;51.282;6.642;2023-07-29T10:16:06;527.45;;;206.50;;
23181;SDS011;11759;51.282;6.642;2023-07-29T10:18:33;507.42;;;191.00;;
23181;SDS011;11759;51.282;6.642;2023-07-29T10:21:00;573.65;;;233.48;;
23181;SDS011;11759;51.282;6.642;2023-07-29T10:23:30;503.13;;;178.98;;
23181;SDS011;11759;51.282;6.642;2023-07-29T10:26:02;531.03;;;199.60;;
23181;SDS011;11759;51.282;6.642;2023-07-29T10:30:57;536.03;;;207.30;;
23181;SDS011;11759;51.282;6.642;2023-07-29T10:33:25;510.88;;;192.45;;
23181;SDS011;11759;51.282;6.642;2023-07-29T10:35:52;502.30;;;176.63;;
23181;SDS011;11759;51.282;6.642;2023-07-29T10:38:21;529.53;;;198.63;;
23181;SDS011;11759;51.282;6.642;2023-07-29T10:40:52;503.73;;;187.02;;
23181;SDS011;11759;51.282;6.642;2023-07-29T10:43:26;532.75;;;224.38;;
23181;SDS011;11759;51.282;6.642;2023-07-29T10:45:56;522.30;;;229.70;;
23181;SDS011;11759;51.282;6.642;2023-07-29T10:48:41;522.03;;;234.20;;
23181;SDS011;11759;51.282;6.642;2023-07-29T10:53:52;529.47;;;254.75;;
23181;SDS011;11759;51.282;6.642;2023-07-29T10:56:28;538.00;;;269.55;;
23181;SDS011;11759;51.282;6.642;2023-07-29T10:58:56;530.53;;;262.92;;
23181;SDS011;11759;51.282;6.642;2023-07-29T11:01:30;541.58;;;263.27;;
23181;SDS011;11759;51.282;6.642;2023-07-29T11:17:38;512.55;;;206.90;;
23181;SDS011;11759;51.282;6.642;2023-07-29T11:20:12;579.38;;;263.55;;
23181;SDS011;11759;51.282;6.642;2023-07-29T11:22:39;520.20;;;233.73;;
23181;SDS011;11759;51.282;6.642;2023-07-29T11:25:06;580.78;;;295.55;;
23181;SDS011;11759;51.282;6.642;2023-07-29T11:27:35;529.45;;;259.42;;
23181;SDS011;11759;51.282;6.642;2023-07-29T11:30:05;542.38;;;264.23;;
23181;SDS011;11759;51.282;6.642;2023-07-29T11:32:35;530.47;;;265.70;;
23181;SDS011;11759;51.282;6.642;2023-07-29T11:35:06;574.90;;;318.92;;
23181;SDS011;11759;51.282;6.642;2023-07-29T11:37:34;532.50;;;273.85;;
23181;SDS011;11759;51.282;6.642;2023-07-29T11:40:01;552.22;;;302.20;;
23181;SDS011;11759;51.282;6.642;2023-07-29T11:42:30;529.25;;;271.20;;
23181;SDS011;11759;51.282;6.642;2023-07-29T11:44:58;597.38;;;320.88;;
23181;SDS011;11759;51.282;6.642;2023-07-29T11:47:25;522.28;;;243.43;;
23181;SDS011;11759;51.282;6.642;2023-07-29T11:49:52;526.63;;;239.65;;
23181;SDS011;11759;51.282;6.642;2023-07-29T11:52:19;526.83;;;227.10;;
23181;SDS011;11759;51.282;6.642;2023-07-29T11:54:47;517.38;;;222.57;;
23181;SDS011;11759;51.282;6.642;2023-07-29T11:57:14;541.33;;;242.48;;
23181;SDS011;11759;51.282;6.642;2023-07-29T11:59:42;530.17;;;257.05;;
23181;SDS011;11759;51.282;6.642;2023-07-29T12:02:13;558.25;;;292.98;;
23181;SDS011;11759;51.282;6.642;2023-07-29T12:04:41;533.97;;;269.77;;
23181;SDS011;11759;51.282;6.642;2023-07-29T12:07:10;551.10;;;274.02;;
23181;SDS011;11759;51.282;6.642;2023-07-29T12:09:36;533.58;;;269.05;;
23181;SDS011;11759;51.282;6.642;2023-07-29T12:12:04;560.70;;;303.95;;
23181;SDS011;11759;51.282;6.642;2023-07-29T12:14:31;562.35;;;307.55;;
23181;SDS011;11759;51.282;6.642;2023-07-29T12:17:05;540.35;;;286.75;;
23181;SDS011;11759;51.282;6.642;2023-07-29T12:19:33;554.78;;;328.33;;
23181;SDS011;11759;51.282;6.642;2023-07-29T12:22:04;545.47;;;321.17;;
23181;SDS011;11759;51.282;6.642;2023-07-29T12:24:36;575.17;;;400.13;;
23181;SDS011;11759;51.282;6.642;2023-07-29T12:27:13;596.63;;;522.55;;
23181;SDS011;11759;51.282;6.642;2023-07-29T12:29:40;588.92;;;449.58;;
23181;SDS011;11759;51.282;6.642;2023-07-29T12:32:08;552.08;;;352.63;;
23181;SDS011;11759;51.282;6.642;2023-07-29T12:34:36;567.45;;;365.95;;
23181;SDS011;11759;51.282;6.642;2023-07-29T12:37:05;557.22;;;384.50;;
23181;SDS011;11759;51.282;6.642;2023-07-29T12:39:33;564.55;;;373.95;;
23181;SDS011;11759;51.282;6.642;2023-07-29T12:42:01;558.13;;;377.98;;
23181;SDS011;11759;51.282;6.642;2023-07-29T12:44:32;568.22;;;419.58;;
23181;SDS011;11759;51.282;6.642;2023-07-29T12:49:27;552.92;;;359.17;;
23181;SDS011;11759;51.282;6.642;2023-07-29T12:51:59;572.85;;;344.73;;
23181;SDS011;11759;51.282;6.642;2023-07-29T12:54:25;544.78;;;314.75;;
23181;SDS011;11759;51.282;6.642;2023-07-29T12:56:52;562.22;;;331.70;;
23181;SDS011;11759;51.282;6.642;2023-07-29T12:59:19;552.63;;;329.60;;
23181;SDS011;11759;51.282;6.642;2023-07-29T13:01:45;666.50;;;441.50;;
23181;SDS011;11759;51.282;6.642;2023-07-29T13:04:12;551.30;;;321.92;;
23181;SDS011;11759;51.282;6.642;2023-07-29T13:06:39;581.95;;;343.15;;
23181;SDS011;11759;51.282;6.642;2023-07-29T13:09:06;539.05;;;305.02;;
23181;SDS011;11759;51.282;6.642;2023-07-29T13:11:34;541.90;;;282.25;;
23181;SDS011;11759;51.282;6.642;2023-07-29T13:14:00;525.08;;;251.10;;
23181;SDS011;11759;51.282;6.642;2023-07-29T13:16:27;524.72;;;233.55;;
23181;SDS011;11759;51.282;6.642;2023-07-29T13:18:55;526.60;;;229.77;;
23181;SDS011;11759;51.282;6.642;2023-07-29T13:21:22;515.67;;;203.80;;
23181;SDS011;11759;51.282;6.642;2023-07-29T13:23:49;564.05;;;234.43;;
23181;SDS011;11759;51.282;6.642;2023-07-29T13:26:16;505.92;;;179.82;;
23181;SDS011;11759;51.282;6.642;2023-07-29T13:28:43;531.40;;;186.05;;
23181;SDS011;11759;51.282;6.642;2023-07-29T13:31:10;497.10;;;165.35;;
23181;SDS011;11759;51.282;6.642;2023-07-29T13:33:37;583.25;;;234.70;;
23181;SDS011;11759;51.282;6.642;2023-07-29T13:36:03;491.05;;;148.23;;
23181;SDS011;11759;51.282;6.642;2023-07-29T13:38:31;503.02;;;155.10;;
23181;SDS011;11759;51.282;6.642;2023-07-29T13:40:58;485.90;;;143.80;;
23181;SDS011;11759;51.282;6.642;2023-07-29T13:43:25;481.23;;;140.27;;
23181;SDS011;11759;51.282;6.642;2023-07-29T13:45:52;536.63;;;162.02;;
23181;SDS011;11759;51.282;6.642;2023-07-29T13:48:19;479.25;;;134.57;;
23181;SDS011;11759;51.282;6.642;2023-07-29T13:50:46;509.38;;;147.55;;
23181;SDS011;11759;51.282;6.642;2023-07-29T13:53:13;483.85;;;135.25;;
23181;SDS011;11759;51.282;6.642;2023-07-29T13:55:40;483.08;;;135.55;;
23181;SDS011;11759;51.282;6.642;2023-07-29T13:58:06;514.22;;;152.50;;
23181;SDS011;11759;51.282;6.642;2023-07-29T14:00:33;479.73;;;135.80;;
23181;SDS011;11759;51.282;6.642;2023-07-29T14:03:00;519.47;;;162.35;;
23181;SDS011;11759;51.282;6.642;2023-07-29T14:05:27;489.85;;;155.65;;
23181;SDS011;11759;51.282;6.642;2023-07-29T14:07:53;535.55;;;211.60;;
23181;SDS011;11759;51.282;6.642;2023-07-29T14:10:20;536.92;;;210.50;;
23181;SDS011;11759;51.282;6.642;2023-07-29T14:12:47;510.85;;;196.73;;
23181;SDS011;11759;51.282;6.642;2023-07-29T14:15:13;552.75;;;236.38;;
23181;SDS011;11759;51.282;6.642;2023-07-29T14:17:40;503.10;;;188.02;;
23181;SDS011;11759;51.282;6.642;2023-07-29T14:20:07;562.92;;;235.07;;
23181;SDS011;11759;51.282;6.642;2023-07-29T14:22:35;506.63;;;190.30;;
23181;SDS011;11759;51.282;6.642;2023-07-29T14:25:02;500.23;;;184.55;;